createdAt,value
2018-02-03T00:00:55.523Z,98368.72
2018-02-03T00:03:23.757Z,98369.66
2018-02-03T00:05:52.200Z,98377.09
2018-02-03T00:08:20.148Z,98378.44
2018-02-03T00:10:52.467Z,98394.13
2018-02-03T00:13:20.824Z,98401.80
2018-02-03T00:15:49.265Z,98397.97
2018-02-03T00:18:18.102Z,98406.87
2018-02-03T00:20:49.604Z,98407.03
2018-02-03T00:23:22.222Z,98403.05
2018-02-03T00:25:51.070Z,98394.13
2018-02-03T00:28:23.998Z,98389.34
2018-02-03T00:30:52.637Z,98385.88
2018-02-03T00:33:20.545Z,98382.98
2018-02-03T00:35:49.368Z,98374.92
2018-02-03T00:38:18.485Z,98372.02
2018-02-03T00:40:46.361Z,98362.27
2018-02-03T00:43:14.231Z,98363.78
2018-02-03T00:45:43.864Z,98362.65
2018-02-03T00:48:11.587Z,98358.95
2018-02-03T00:50:40.046Z,98355.97
2018-02-03T00:53:08.623Z,98344.90
2018-02-03T00:55:36.498Z,98353.23
2018-02-03T00:58:04.534Z,98378.56
2018-02-03T01:00:32.570Z,98388.89
2018-02-03T01:03:00.324Z,98379.27
2018-02-03T01:05:28.591Z,98355.75
2018-02-03T01:07:56.463Z,98355.83
2018-02-03T01:10:26.461Z,98339.06
2018-02-03T01:12:55.716Z,98326.80
2018-02-03T01:15:24.024Z,98326.63
2018-02-03T01:17:51.797Z,98332.41
2018-02-03T01:20:19.851Z,98333.91
2018-02-03T01:22:47.935Z,98334.02
2018-02-03T01:25:19.285Z,98344.12
2018-02-03T01:27:50.422Z,98351.86
2018-02-03T01:30:20.234Z,98348.05
2018-02-03T01:32:49.208Z,98335.97
2018-02-03T01:35:18.173Z,98335.12
2018-02-03T01:37:47.310Z,98331.43
2018-02-03T01:40:16.279Z,98318.08
2018-02-03T01:42:45.306Z,98309.02
2018-02-03T01:45:13.914Z,98287.95
2018-02-03T01:47:53.699Z,98280.04
2018-02-03T01:50:23.933Z,98289.59
2018-02-03T01:52:52.287Z,98269.38
2018-02-03T01:55:25.393Z,98259.69
2018-02-03T01:57:54.238Z,98258.94
2018-02-03T02:00:28.144Z,98266.16
2018-02-03T02:02:57.040Z,98264.83
2018-02-03T02:05:25.736Z,98257.88
2018-02-03T02:07:53.621Z,98249.47
2018-02-03T02:10:23.000Z,98248.13
2018-02-03T02:12:50.781Z,98246.30
2018-02-03T02:15:19.453Z,98246.30
2018-02-03T02:17:47.908Z,98239.42
2018-02-03T02:20:20.868Z,98248.75
2018-02-03T02:22:48.631Z,98269.14
2018-02-03T02:25:18.057Z,98263.45
2018-02-03T02:27:47.849Z,98258.67
2018-02-03T02:30:16.552Z,98255.82
2018-02-03T02:32:44.468Z,98258.74
2018-02-03T02:35:12.330Z,98259.34
2018-02-03T02:37:40.098Z,98267.20
2018-02-03T02:40:07.945Z,98257.31
2018-02-03T02:42:36.612Z,98260.91
2018-02-03T02:45:04.410Z,98275.92
2018-02-03T02:47:32.675Z,98286.25
2018-02-03T02:50:03.233Z,98284.91
2018-02-03T02:52:30.999Z,98294.98
2018-02-03T02:54:58.918Z,98289.98
2018-02-03T02:57:27.211Z,98294.53
2018-02-03T02:59:56.055Z,98298.37
2018-02-03T03:02:24.870Z,98293.80
2018-02-03T03:04:54.318Z,98282.74
2018-02-03T03:07:22.063Z,98265.01
2018-02-03T03:09:51.921Z,98267.27
2018-02-03T03:12:25.366Z,98260.12
2018-02-03T03:14:53.170Z,98260.30
2018-02-03T03:17:21.704Z,98265.56
2018-02-03T03:19:50.706Z,98278.34
2018-02-03T03:22:18.734Z,98289.94
2018-02-03T03:24:46.502Z,98276.50
2018-02-03T03:27:14.210Z,98285.65
2018-02-03T03:29:42.115Z,98288.84
2018-02-03T03:32:10.428Z,98275.08
2018-02-03T03:34:38.984Z,98277.00
2018-02-03T03:37:07.684Z,98278.56
2018-02-03T03:39:37.277Z,98273.70
2018-02-03T03:42:05.236Z,98279.66
2018-02-03T03:44:33.716Z,98286.39
2018-02-03T03:47:01.414Z,98288.23
2018-02-03T03:49:30.400Z,98278.83
2018-02-03T03:51:59.215Z,98284.56
2018-02-03T03:54:31.665Z,98273.33
2018-02-03T03:56:59.926Z,98276.08
2018-02-03T03:59:29.968Z,98271.78
2018-02-03T04:01:57.769Z,98267.48
2018-02-03T04:04:25.596Z,98267.03
2018-02-03T04:06:53.395Z,98268.28
2018-02-03T04:09:22.030Z,98260.49
2018-02-03T04:11:50.506Z,98264.58
2018-02-03T04:14:19.106Z,98275.98
2018-02-03T04:16:47.031Z,98272.77
2018-02-03T04:19:15.764Z,98267.44
2018-02-03T04:21:43.545Z,98267.50
2018-02-03T04:24:11.812Z,98266.48
2018-02-03T04:26:39.636Z,98269.30
2018-02-03T04:29:08.540Z,98269.02
2018-02-03T04:31:37.701Z,98255.77
2018-02-03T04:34:06.605Z,98265.78
2018-02-03T04:36:34.337Z,98270.19
2018-02-03T04:39:03.041Z,98270.42
2018-02-03T04:41:31.752Z,98267.53
2018-02-03T04:44:02.030Z,98269.41
2018-02-03T04:46:33.646Z,98260.19
2018-02-03T04:49:04.657Z,98255.76
2018-02-03T04:51:33.133Z,98254.89
2018-02-03T04:54:01.849Z,98251.60
2018-02-03T04:56:30.200Z,98250.00
2018-02-03T04:58:59.704Z,98256.06
2018-02-03T05:01:27.655Z,98270.20
2018-02-03T05:03:56.281Z,98268.69
2018-02-03T05:06:25.271Z,98272.65
2018-02-03T05:08:53.167Z,98261.36
2018-02-03T05:11:22.221Z,98260.63
2018-02-03T05:13:50.146Z,98256.59
2018-02-03T05:19:17.492Z,98263.58
2018-02-03T05:21:45.399Z,98262.72
2018-02-03T05:24:12.969Z,98265.47
2018-02-03T05:26:40.536Z,98262.84
2018-02-03T05:29:08.158Z,98255.72
2018-02-03T05:31:35.756Z,98252.47
2018-02-03T05:34:03.311Z,98250.20
2018-02-03T05:36:31.057Z,98246.64
2018-02-03T05:38:58.731Z,98247.90
2018-02-03T05:41:26.332Z,98248.87
2018-02-03T05:43:54.544Z,98248.56
2018-02-03T05:46:22.217Z,98247.45
2018-02-03T05:48:49.821Z,98246.13
2018-02-03T05:51:17.473Z,98246.58
2018-02-03T05:53:45.052Z,98241.53
2018-02-03T05:56:12.675Z,98231.71
2018-02-03T05:58:40.552Z,98226.44
2018-02-03T06:01:08.135Z,98227.64
2018-02-03T06:03:35.699Z,98224.25
2018-02-03T06:06:03.325Z,98224.18
2018-02-03T06:08:30.896Z,98233.29
2018-02-03T06:10:58.460Z,98213.34
2018-02-03T06:13:26.095Z,98205.06
2018-02-03T06:15:54.079Z,98188.94
2018-02-03T06:18:21.639Z,98192.64
2018-02-03T06:20:49.281Z,98191.84
2018-02-03T06:23:16.856Z,98204.64
2018-02-03T06:25:47.754Z,98210.44
2018-02-03T06:30:49.654Z,98210.84
2018-02-03T06:33:17.313Z,98214.23
2018-02-03T06:35:44.973Z,98229.86
2018-02-03T06:38:12.756Z,98215.58
2018-02-03T06:40:40.418Z,98215.29
2018-02-03T06:43:08.021Z,98215.14
2018-02-03T06:45:36.618Z,98211.98
2018-02-03T06:48:09.038Z,98205.80
2018-02-03T06:50:41.707Z,98201.13
2018-02-03T06:53:13.124Z,98194.66
2018-02-03T06:55:43.144Z,98207.22
2018-02-03T06:58:18.732Z,98208.59
2018-02-03T07:00:46.417Z,98199.17
2018-02-03T07:03:14.118Z,98193.14
2018-02-03T07:05:41.857Z,98187.35
2018-02-03T07:08:10.179Z,98174.08
2018-02-03T07:10:37.858Z,98157.68
2018-02-03T07:13:05.779Z,98144.88
2018-02-03T07:15:33.400Z,98127.59
2018-02-03T07:18:08.101Z,98132.52
2018-02-03T07:20:35.826Z,98133.36
2018-02-03T07:23:03.473Z,98133.95
2018-02-03T07:25:31.204Z,98137.98
2018-02-03T07:27:59.378Z,98140.14
2018-02-03T07:30:43.173Z,98126.52
2018-02-03T07:33:17.743Z,98129.98
2018-02-03T07:35:45.432Z,98124.16
2018-02-03T07:38:13.186Z,98121.27
2018-02-03T07:40:41.958Z,98108.81
2018-02-03T07:43:21.690Z,98112.76
2018-02-03T07:45:49.463Z,98113.50
2018-02-03T07:48:17.273Z,98125.27
2018-02-03T07:50:48.728Z,98113.66
2018-02-03T07:53:17.592Z,98104.94
2018-02-03T07:55:45.317Z,98098.33
2018-02-03T07:58:14.828Z,98099.03
2018-02-03T08:00:42.621Z,98098.94
2018-02-03T08:06:01.779Z,98082.72
2018-02-03T08:08:36.930Z,98089.33
2018-02-03T08:11:05.916Z,98074.41
2018-02-03T08:13:33.562Z,98074.58
2018-02-03T08:18:36.183Z,98081.59
2018-02-03T08:21:03.850Z,98059.13
2018-02-03T08:23:31.529Z,98068.80
2018-02-03T08:25:59.557Z,98066.23
2018-02-03T08:28:40.606Z,98059.52
2018-02-03T08:31:08.391Z,98050.27
2018-02-03T08:33:50.067Z,98013.97
2018-02-03T08:36:19.955Z,98061.38
2018-02-03T08:42:00.772Z,98063.81
2018-02-03T08:47:37.718Z,98084.86
2018-02-03T08:50:06.634Z,98098.31
2018-02-03T08:52:35.931Z,98088.51
2018-02-03T08:55:03.713Z,98071.93
2018-02-03T08:57:31.440Z,98066.19
2018-02-03T09:00:00.570Z,98064.74
2018-02-03T09:02:29.226Z,98055.91
2018-02-03T09:04:58.025Z,98068.39
2018-02-03T09:07:25.841Z,98028.92
2018-02-03T09:09:53.512Z,98031.95
2018-02-03T09:12:21.183Z,98038.62
2018-02-03T09:14:48.852Z,98039.03
2018-02-03T09:17:18.162Z,98051.15
2018-02-03T09:19:46.409Z,98034.78
2018-02-03T09:22:14.064Z,98013.60
2018-02-03T09:24:42.638Z,98014.66
2018-02-03T09:27:11.947Z,98027.58
2018-02-03T09:29:39.581Z,98031.84
2018-02-03T09:32:07.685Z,98025.13
2018-02-03T09:34:35.488Z,98026.41
2018-02-03T09:37:04.594Z,98007.28
2018-02-03T09:39:33.898Z,98001.42
2018-02-03T09:42:01.706Z,98010.57
2018-02-03T09:44:29.336Z,98008.25
2018-02-03T09:46:57.804Z,98004.05
2018-02-03T09:49:25.418Z,97988.28
2018-02-03T09:51:53.044Z,97967.56
2018-02-03T09:54:20.845Z,97953.02
2018-02-03T09:56:49.957Z,97939.38
2018-02-03T09:59:17.635Z,97936.80
2018-02-03T10:01:45.410Z,97937.44
2018-02-03T10:04:13.028Z,97926.76
2018-02-03T10:10:01.042Z,97922.97
2018-02-03T10:12:28.734Z,97931.72
2018-02-03T10:14:56.346Z,97936.88
2018-02-03T10:17:23.965Z,97923.94
2018-02-03T10:19:51.813Z,97928.81
2018-02-03T10:22:19.453Z,97922.21
2018-02-03T10:24:47.165Z,97902.45
2018-02-03T10:27:14.838Z,97890.47
2018-02-03T10:29:42.396Z,97896.55
2018-02-03T10:32:09.992Z,97889.78
2018-02-03T10:34:37.655Z,97887.52
2018-02-03T10:37:05.216Z,97879.71
2018-02-03T10:39:33.267Z,97858.30
2018-02-03T10:42:01.283Z,97879.17
2018-02-03T10:44:28.906Z,97870.29
2018-02-03T10:46:56.884Z,97864.84
2018-02-03T10:49:24.573Z,97859.66
2018-02-03T10:51:52.184Z,97843.61
2018-02-03T10:54:19.857Z,97856.95
2018-02-03T10:56:47.531Z,97848.65
2018-02-03T10:59:15.093Z,97846.23
2018-02-03T11:01:42.734Z,97835.56
2018-02-03T11:04:10.429Z,97827.92
2018-02-03T11:06:38.032Z,97824.66
2018-02-03T11:09:05.666Z,97809.82
2018-02-03T11:11:33.308Z,97822.02
2018-02-03T11:14:01.381Z,97812.52
2018-02-03T11:16:28.977Z,97828.11
2018-02-03T11:18:56.612Z,97817.91
2018-02-03T11:21:24.478Z,97821.13
2018-02-03T11:23:52.065Z,97821.27
2018-02-03T11:26:20.508Z,97803.16
2018-02-03T11:28:48.187Z,97793.39
2018-02-03T11:31:15.793Z,97782.01
2018-02-03T11:33:43.480Z,97778.75
2018-02-03T11:36:11.145Z,97778.56
2018-02-03T11:38:38.787Z,97779.33
2018-02-03T11:41:06.503Z,97780.92
2018-02-03T11:43:34.519Z,97785.52
2018-02-03T11:46:03.028Z,97782.52
2018-02-03T11:48:30.656Z,97798.92
2018-02-03T11:50:58.378Z,97778.48
2018-02-03T11:53:25.970Z,97787.94
2018-02-03T11:55:53.619Z,97785.06
2018-02-03T11:58:21.197Z,97792.80
2018-02-03T12:00:49.310Z,97776.62
2018-02-03T12:03:17.145Z,97775.80
2018-02-03T12:05:44.708Z,97773.31
2018-02-03T12:08:12.272Z,97771.36
2018-02-03T12:10:39.998Z,97745.57
2018-02-03T12:13:07.650Z,97761.38
2018-02-03T12:15:35.431Z,97748.55
2018-02-03T12:18:03.048Z,97744.58
2018-02-03T12:20:30.706Z,97733.89
2018-02-03T12:22:58.755Z,97733.11
2018-02-03T12:25:26.399Z,97724.38
2018-02-03T12:27:53.976Z,97736.67
2018-02-03T12:30:22.391Z,97742.50
2018-02-03T12:32:50.026Z,97728.39
2018-02-03T12:35:17.609Z,97730.13
2018-02-03T12:37:45.210Z,97730.03
2018-02-03T12:40:13.269Z,97722.17
2018-02-03T12:42:40.843Z,97715.24
2018-02-03T12:45:08.475Z,97719.45
2018-02-03T12:47:36.136Z,97719.10
2018-02-03T12:50:03.835Z,97705.03
2018-02-03T12:52:31.512Z,97709.09
2018-02-03T12:54:59.196Z,97711.89
2018-02-03T12:57:26.772Z,97708.19
2018-02-03T12:59:54.371Z,97699.59
2018-02-03T13:02:21.993Z,97677.05
2018-02-03T13:04:49.597Z,97671.78
2018-02-03T13:07:17.174Z,97672.77
2018-02-03T13:09:44.823Z,97685.14
2018-02-03T13:12:12.392Z,97684.04
2018-02-03T13:14:40.511Z,97680.77
2018-02-03T13:17:08.568Z,97665.65
2018-02-03T13:19:36.208Z,97661.37
2018-02-03T13:22:04.642Z,97643.91
2018-02-03T13:24:32.354Z,97634.51
2018-02-03T13:26:59.956Z,97646.37
2018-02-03T13:29:27.549Z,97638.80
2018-02-03T13:31:55.341Z,97652.80
2018-02-03T13:34:22.949Z,97674.06
2018-02-03T13:36:50.530Z,97689.05
2018-02-03T13:39:21.530Z,97681.12
2018-02-03T13:41:49.097Z,97671.50
2018-02-03T13:44:16.694Z,97663.09
2018-02-03T13:46:44.353Z,97670.09
2018-02-03T13:49:12.326Z,97664.61
2018-02-03T13:51:39.921Z,97659.61
2018-02-03T13:54:07.672Z,97659.91
2018-02-03T13:56:35.259Z,97662.78
2018-02-03T13:59:02.833Z,97662.78
2018-02-03T14:01:30.709Z,97687.36
2018-02-03T14:03:58.386Z,97688.01
2018-02-03T14:06:26.013Z,97685.19
2018-02-03T14:08:53.768Z,97688.91
2018-02-03T14:11:21.349Z,97689.27
2018-02-03T14:13:48.941Z,97696.58
2018-02-03T14:16:16.599Z,97693.50
2018-02-03T14:18:44.379Z,97692.52
2018-02-03T14:21:11.964Z,97700.88
2018-02-03T14:23:39.660Z,97699.88
2018-02-03T14:26:12.850Z,97688.33
2018-02-03T14:28:40.493Z,97695.33
2018-02-03T14:31:08.108Z,97689.82
2018-02-03T14:33:35.696Z,97683.61
2018-02-03T14:36:03.390Z,97686.65
2018-02-03T14:38:30.977Z,97684.45
2018-02-03T14:40:58.565Z,97670.25
2018-02-03T14:43:26.215Z,97661.02
2018-02-03T14:45:53.801Z,97669.76
2018-02-03T14:48:21.438Z,97662.75
2018-02-03T14:50:49.091Z,97668.90
2018-02-03T14:53:16.680Z,97668.80
2018-02-03T14:55:44.324Z,97667.48
2018-02-03T14:58:12.018Z,97659.86
2018-02-03T15:00:40.251Z,97652.84
2018-02-03T15:03:07.863Z,97653.08
2018-02-03T15:05:35.520Z,97658.48
2018-02-03T15:08:03.135Z,97659.84
2018-02-03T15:10:30.710Z,97674.21
2018-02-03T15:12:59.066Z,97679.13
2018-02-03T15:15:26.653Z,97691.52
2018-02-03T15:17:54.242Z,97679.97
2018-02-03T15:20:21.879Z,97677.30
2018-02-03T15:22:49.454Z,97677.64
2018-02-03T15:25:17.079Z,97680.39
2018-02-03T15:27:44.810Z,97693.27
2018-02-03T15:30:12.393Z,97694.66
2018-02-03T15:32:39.973Z,97702.62
2018-02-03T15:35:08.062Z,97705.20
2018-02-03T15:37:35.660Z,97695.49
2018-02-03T15:40:03.244Z,97688.57
2018-02-03T15:42:30.956Z,97705.65
2018-02-03T15:44:58.594Z,97696.11
2018-02-03T15:47:26.164Z,97693.70
2018-02-03T15:49:53.828Z,97700.77
2018-02-03T15:52:21.403Z,97705.98
2018-02-03T15:54:48.989Z,97708.09
2018-02-03T15:57:16.649Z,97698.78
2018-02-03T15:59:44.261Z,97706.95
2018-02-03T16:02:12.702Z,97702.02
2018-02-03T16:04:40.582Z,97703.30
2018-02-03T16:07:08.190Z,97683.80
2018-02-03T16:09:36.671Z,97680.14
2018-02-03T16:12:04.354Z,97673.88
2018-02-03T16:14:31.912Z,97683.03
2018-02-03T16:16:59.866Z,97685.53
2018-02-03T16:19:27.489Z,97687.86
2018-02-03T16:21:55.058Z,97689.50
2018-02-03T16:24:22.632Z,97681.50
2018-02-03T16:26:50.315Z,97687.62
2018-02-03T16:29:18.063Z,97690.13
2018-02-03T16:31:45.694Z,97686.23
2018-02-03T16:34:13.342Z,97683.00
2018-02-03T16:36:40.940Z,97685.30
2018-02-03T16:39:08.501Z,97694.45
2018-02-03T16:41:36.169Z,97691.00
2018-02-03T16:44:03.746Z,97688.05
2018-02-03T16:46:31.375Z,97686.14
2018-02-03T16:48:59.005Z,97691.98
2018-02-03T16:51:26.584Z,97677.86
2018-02-03T16:53:54.214Z,97681.97
2018-02-03T16:56:29.708Z,97679.33
2018-02-03T16:58:57.305Z,97680.86
2018-02-03T17:01:24.869Z,97674.34
2018-02-03T17:03:52.494Z,97658.31
2018-02-03T17:06:20.073Z,97655.33
2018-02-03T17:08:47.661Z,97658.31
2018-02-03T17:11:15.302Z,97649.77
2018-02-03T17:13:42.885Z,97650.32
2018-02-03T17:16:10.472Z,97646.28
2018-02-03T17:18:38.882Z,97656.67
2018-02-03T17:21:06.465Z,97654.86
2018-02-03T17:23:34.078Z,97642.42
2018-02-03T17:26:01.718Z,97645.54
2018-02-03T17:28:29.288Z,97646.23
2018-02-03T17:30:57.023Z,97637.64
2018-02-03T17:33:24.705Z,97649.73
2018-02-03T17:35:52.290Z,97644.20
2018-02-03T17:38:25.521Z,97647.16
2018-02-03T17:40:53.149Z,97647.16
2018-02-03T17:43:20.726Z,97647.78
2018-02-03T17:45:53.843Z,97651.61
2018-02-03T17:48:21.431Z,97660.37
2018-02-03T17:50:49.036Z,97666.28
2018-02-03T17:53:16.677Z,97664.85
2018-02-03T17:55:49.760Z,97649.95
2018-02-03T17:58:17.506Z,97637.36
2018-02-03T18:00:45.196Z,97634.41
2018-02-03T18:03:12.801Z,97625.63
2018-02-03T18:05:40.446Z,97629.83
2018-02-03T18:08:08.114Z,97625.38
2018-02-03T18:10:35.721Z,97623.98
2018-02-03T18:13:03.372Z,97612.20
2018-02-03T18:15:30.938Z,97613.29
2018-02-03T18:17:58.496Z,97602.45
2018-02-03T18:20:26.855Z,97612.70
2018-02-03T18:22:54.460Z,97600.73
2018-02-03T18:25:22.666Z,97612.41
2018-02-03T18:27:50.331Z,97602.51
2018-02-03T18:30:18.010Z,97599.10
2018-02-03T18:32:45.705Z,97605.28
2018-02-03T18:35:13.392Z,97602.33
2018-02-03T18:37:41.506Z,97593.02
2018-02-03T18:40:09.125Z,97592.43
2018-02-03T18:42:37.231Z,97601.91
2018-02-03T18:45:04.884Z,97588.67
2018-02-03T18:47:32.570Z,97591.20
2018-02-03T18:50:00.188Z,97592.43
2018-02-03T18:52:27.765Z,97593.55
2018-02-03T18:54:55.522Z,97586.94
2018-02-03T18:57:23.394Z,97582.63
2018-02-03T18:59:50.994Z,97582.28
2018-02-03T19:02:18.630Z,97572.94
2018-02-03T19:04:46.274Z,97572.20
2018-02-03T19:07:13.971Z,97565.19
2018-02-03T19:09:41.552Z,97567.27
2018-02-03T19:12:09.197Z,97568.69
2018-02-03T19:14:36.813Z,97565.56
2018-02-03T19:17:04.390Z,97568.16
2018-02-03T19:19:32.093Z,97563.71
2018-02-03T19:21:59.716Z,97563.40
2018-02-03T19:24:28.234Z,97554.23
2018-02-03T19:26:55.896Z,97558.16
2018-02-03T19:29:23.472Z,97559.24
2018-02-03T19:31:51.062Z,97554.31
2018-02-03T19:34:18.889Z,97540.20
2018-02-03T19:36:46.486Z,97534.23
2018-02-03T19:39:14.081Z,97538.56
2018-02-03T19:41:42.128Z,97533.59
2018-02-03T19:44:09.727Z,97538.46
2018-02-03T19:46:37.308Z,97543.22
2018-02-03T19:49:04.963Z,97564.42
2018-02-03T19:51:32.606Z,97565.36
2018-02-03T19:54:00.221Z,97565.84
2018-02-03T19:56:27.915Z,97552.17
2018-02-03T19:58:55.521Z,97539.52
2018-02-03T20:01:24.097Z,97549.33
2018-02-03T20:03:51.766Z,97545.63
2018-02-03T20:06:19.346Z,97546.67
2018-02-03T20:08:46.993Z,97540.52
2018-02-03T20:11:14.678Z,97544.48
2018-02-03T20:13:42.429Z,97537.14
2018-02-03T20:16:10.210Z,97524.34
2018-02-03T20:18:37.869Z,97536.20
2018-02-03T20:21:05.433Z,97529.84
2018-02-03T20:23:33.014Z,97530.36
2018-02-03T20:26:00.823Z,97541.10
2018-02-03T20:28:28.457Z,97518.61
2018-02-03T20:30:56.056Z,97527.86
2018-02-03T20:33:23.762Z,97523.83
2018-02-03T20:35:51.502Z,97522.16
2018-02-03T20:38:19.111Z,97525.95
2018-02-03T20:40:46.793Z,97542.27
2018-02-03T20:43:14.352Z,97561.31
2018-02-03T20:45:41.953Z,97562.36
2018-02-03T20:48:09.624Z,97561.25
2018-02-03T20:50:37.207Z,97556.63
2018-02-03T20:53:04.871Z,97587.12
2018-02-03T20:55:32.499Z,97594.70
2018-02-03T20:58:00.092Z,97592.47
2018-02-03T21:00:27.785Z,97590.11
2018-02-03T21:02:55.403Z,97575.96
2018-02-03T21:05:22.991Z,97576.48
2018-02-03T21:07:50.593Z,97583.47
2018-02-03T21:10:18.285Z,97589.90
2018-02-03T21:12:45.881Z,97584.82
2018-02-03T21:15:14.242Z,97585.20
2018-02-03T21:17:41.869Z,97569.05
2018-02-03T21:20:09.464Z,97569.08
2018-02-03T21:22:37.106Z,97574.16
2018-02-03T21:25:04.758Z,97580.30
2018-02-03T21:27:32.349Z,97587.50
2018-02-03T21:29:59.916Z,97585.34
2018-02-03T21:32:28.232Z,97580.86
2018-02-03T21:34:55.829Z,97573.53
2018-02-03T21:37:23.528Z,97574.53
2018-02-03T21:39:51.406Z,97574.67
2018-02-03T21:42:19.077Z,97561.57
2018-02-03T21:44:46.668Z,97556.91
2018-02-03T21:47:14.358Z,97575.09
2018-02-03T21:49:41.925Z,97567.55
2018-02-03T21:52:09.973Z,97578.46
2018-02-03T21:54:37.611Z,97564.63
2018-02-03T21:57:05.195Z,97551.11
2018-02-03T21:59:32.785Z,97551.08
2018-02-03T22:02:00.401Z,97531.93
2018-02-03T22:04:28.550Z,97523.59
2018-02-03T22:06:56.790Z,97523.87
2018-02-03T22:09:25.267Z,97527.03
2018-02-03T22:11:53.582Z,97512.47
2018-02-03T22:14:21.502Z,97509.97
2018-02-03T22:16:49.537Z,97526.89
2018-02-03T22:19:17.384Z,97532.25
2018-02-03T22:21:45.666Z,97531.41
2018-02-03T22:24:14.366Z,97537.70
2018-02-03T22:26:43.070Z,97548.13
2018-02-03T22:29:11.340Z,97537.63
2018-02-03T22:31:39.505Z,97527.31
2018-02-03T22:34:07.382Z,97522.38
2018-02-03T22:36:35.227Z,97530.09
2018-02-03T22:39:03.380Z,97533.88
2018-02-03T22:41:31.653Z,97534.16
2018-02-03T22:43:59.913Z,97529.81
2018-02-03T22:46:27.918Z,97536.20
2018-02-03T22:48:55.789Z,97540.66
2018-02-03T22:51:23.717Z,97535.30
2018-02-03T22:53:52.144Z,97532.66
2018-02-03T22:56:20.040Z,97538.67
2018-02-03T22:58:48.303Z,97536.17
2018-02-03T23:01:18.716Z,97526.13
2018-02-03T23:03:46.984Z,97529.70
2018-02-03T23:06:16.070Z,97533.55
2018-02-03T23:08:44.077Z,97522.32
2018-02-03T23:11:11.986Z,97527.88
2018-02-03T23:13:39.836Z,97522.87
2018-02-03T23:16:07.892Z,97532.73
2018-02-03T23:18:35.709Z,97549.22
2018-02-03T23:21:03.985Z,97538.50
2018-02-03T23:23:31.954Z,97515.86
2018-02-03T23:26:00.210Z,97510.79
2018-02-03T23:28:28.464Z,97509.27
2018-02-03T23:30:56.677Z,97505.92
2018-02-03T23:33:24.758Z,97499.00
2018-02-03T23:35:52.582Z,97506.37
2018-02-03T23:38:20.872Z,97501.73
2018-02-03T23:40:48.993Z,97511.23
2018-02-03T23:43:16.849Z,97509.28
2018-02-03T23:45:45.193Z,97510.81
2018-02-03T23:48:13.013Z,97512.27
2018-02-03T23:50:41.000Z,97507.05
2018-02-03T23:53:09.146Z,97498.44
2018-02-03T23:55:37.023Z,97504.28
2018-02-03T23:58:04.800Z,97494.52
